Time;durP1;ratioP1;P1;durP2;ratioP2;P2;SDS_P1;SDS_P2;PMS_P1;PMS_P2;Temp;Humidity;BMP_temperature;BMP_pressure;BME280_temperature;BME280_humidity;BME280_pressure;Samples;Min_cycle;Max_cycle;Signal;HPM_P1;HPM_P2
2023/07/23 00:01:23;;;;;;;42.03;24.30;;;13.60;99.90;;;;;;5010150;28;20021;-68
2023/07/23 00:03:48;;;;;;;39.17;23.98;;;13.60;99.90;;;;;;5006784;28;20061;-67
2023/07/23 00:06:14;;;;;;;41.30;24.38;;;13.60;99.90;;;;;;5012236;28;20034;-68
2023/07/23 00:08:39;;;;;;;45.72;24.48;;;13.60;99.90;;;;;;5012107;28;20029;-68
2023/07/23 00:11:05;;;;;;;39.70;23.75;;;13.60;99.90;;;;;;5011461;28;20044;-68
2023/07/23 00:13:31;;;;;;;41.20;23.60;;;13.60;99.90;;;;;;5012709;28;20462;-67
2023/07/23 00:15:56;;;;;;;41.83;23.90;;;13.60;99.90;;;;;;5008394;28;20022;-68
2023/07/23 00:18:22;;;;;;;41.55;23.85;;;13.50;99.90;;;;;;5013426;28;20100;-69
2023/07/23 00:20:47;;;;;;;43.55;24.02;;;13.60;99.90;;;;;;5008805;28;20033;-67
2023/07/23 00:23:13;;;;;;;38.88;24.30;;;13.60;99.90;;;;;;5012738;28;20049;-68
2023/07/23 00:25:38;;;;;;;44.72;24.17;;;13.60;99.90;;;;;;5011323;28;20518;-68
2023/07/23 00:28:04;;;;;;;43.05;23.77;;;13.60;99.90;;;;;;5006933;28;20029;-68
2023/07/23 00:30:30;;;;;;;46.40;23.73;;;13.60;99.90;;;;;;5010717;28;20036;-67
2023/07/23 00:32:55;;;;;;;42.40;23.63;;;13.60;99.90;;;;;;5009772;28;20041;-69
2023/07/23 00:35:20;;;;;;;44.47;23.65;;;13.60;99.90;;;;;;5010477;28;20037;-68
2023/07/23 00:37:46;;;;;;;37.10;21.65;;;13.60;99.90;;;;;;5011741;28;20454;-68
2023/07/23 00:40:12;;;;;;;38.78;23.55;;;13.60;99.90;;;;;;5013919;28;20018;-67
2023/07/23 00:42:37;;;;;;;46.40;23.05;;;13.60;99.90;;;;;;5007996;28;20125;-67
2023/07/23 00:45:03;;;;;;;42.10;24.92;;;13.60;99.90;;;;;;5008589;28;20030;-69
2023/07/23 00:47:29;;;;;;;43.47;23.08;;;13.60;99.90;;;;;;5008888;28;20466;-69
2023/07/23 00:49:55;;;;;;;40.60;24.05;;;13.60;99.90;;;;;;5007714;28;20029;-69
2023/07/23 00:52:21;;;;;;;42.17;23.90;;;13.60;99.90;;;;;;5012067;28;20033;-69
2023/07/23 00:54:46;;;;;;;46.42;25.27;;;13.60;99.90;;;;;;5008092;28;20352;-68
2023/07/23 00:57:13;;;;;;;38.45;23.50;;;13.60;99.90;;;;;;5011217;28;20097;-69
2023/07/23 00:59:38;;;;;;;39.50;24.10;;;13.60;99.90;;;;;;5008542;28;20026;-67
2023/07/23 01:02:04;;;;;;;40.30;23.65;;;13.60;99.90;;;;;;5008389;28;20111;-68
2023/07/23 01:04:32;;;;;;;41.97;24.05;;;13.60;99.90;;;;;;5008554;28;20080;-67
2023/07/23 01:07:00;;;;;;;39.20;22.88;;;13.60;99.90;;;;;;5007148;28;20029;-68
2023/07/23 01:09:26;;;;;;;38.80;21.85;;;13.60;99.90;;;;;;5006613;28;20030;-68
2023/07/23 01:11:53;;;;;;;37.50;23.42;;;13.60;99.90;;;;;;5012971;28;20529;-67
2023/07/23 01:14:18;;;;;;;39.03;23.50;;;13.60;99.90;;;;;;5008435;28;20021;-68
2023/07/23 01:16:44;;;;;;;40.05;24.00;;;13.60;99.90;;;;;;5009861;28;20026;-68
2023/07/23 01:19:12;;;;;;;41.20;22.92;;;13.60;99.90;;;;;;5011376;28;20033;-68
2023/07/23 01:21:38;;;;;;;42.42;23.35;;;13.60;99.90;;;;;;5007706;28;20025;-68
2023/07/23 01:24:04;;;;;;;46.88;23.77;;;13.60;99.90;;;;;;5010527;28;20045;-68
2023/07/23 01:26:29;;;;;;;41.65;23.70;;;13.60;99.90;;;;;;5009290;28;20056;-68
2023/07/23 01:28:55;;;;;;;46.90;23.50;;;13.60;99.90;;;;;;5011534;28;20030;-68
2023/07/23 01:31:20;;;;;;;40.17;22.85;;;13.60;99.90;;;;;;5009351;28;20064;-68
2023/07/23 01:33:46;;;;;;;46.20;23.42;;;13.60;99.90;;;;;;5005246;28;20746;-68
2023/07/23 01:36:14;;;;;;;37.47;22.75;;;13.60;99.90;;;;;;5009230;28;20057;-68
2023/07/23 01:38:39;;;;;;;40.47;22.80;;;13.60;99.90;;;;;;5008580;28;20045;-67
2023/07/23 01:41:05;;;;;;;39.63;23.30;;;13.60;99.90;;;;;;5007704;28;20022;-70
2023/07/23 01:43:31;;;;;;;44.70;23.08;;;13.60;99.90;;;;;;5010310;28;20050;-68
2023/07/23 01:45:56;;;;;;;37.10;22.17;;;13.60;99.90;;;;;;5002742;28;20144;-69
2023/07/23 01:48:22;;;;;;;39.78;22.77;;;13.60;99.90;;;;;;5003748;28;20026;-68
2023/07/23 01:50:48;;;;;;;36.08;21.67;;;13.60;99.90;;;;;;5007476;28;20054;-68
2023/07/23 01:53:13;;;;;;;39.70;22.77;;;13.60;99.90;;;;;;5003336;28;20522;-68
2023/07/23 01:55:39;;;;;;;35.90;21.75;;;13.60;99.90;;;;;;5007068;28;20447;-68
2023/07/23 01:58:04;;;;;;;39.20;21.83;;;13.60;99.90;;;;;;5006506;28;20022;-67
2023/07/23 02:00:30;;;;;;;39.28;22.27;;;13.60;99.90;;;;;;5009110;28;20022;-68
2023/07/23 02:02:55;;;;;;;39.97;22.25;;;13.60;99.90;;;;;;5009818;28;20505;-68
2023/07/23 02:05:22;;;;;;;41.47;21.95;;;13.60;99.90;;;;;;5004287;28;20030;-68
2023/07/23 02:07:47;;;;;;;40.83;23.70;;;13.60;99.90;;;;;;5008807;28;20029;-68
2023/07/23 02:10:13;;;;;;;40.15;22.65;;;13.60;99.90;;;;;;5009809;28;20021;-68
2023/07/23 02:12:39;;;;;;;40.70;23.58;;;13.60;99.90;;;;;;5009215;28;20030;-68
2023/07/23 02:15:05;;;;;;;37.83;21.48;;;13.60;99.90;;;;;;5005554;28;20370;-69
2023/07/23 02:17:30;;;;;;;38.05;21.88;;;13.60;99.90;;;;;;5009254;28;20362;-69
2023/07/23 02:19:56;;;;;;;37.72;21.08;;;13.60;99.90;;;;;;5007150;28;20137;-68
2023/07/23 02:22:21;;;;;;;39.17;21.75;;;13.60;99.90;;;;;;5009847;28;20042;-68
2023/07/23 02:24:47;;;;;;;36.88;20.70;;;13.60;99.90;;;;;;5010050;28;20172;-68
2023/07/23 02:27:14;;;;;;;33.50;20.08;;;13.60;99.90;;;;;;5004513;28;20372;-67
2023/07/23 02:29:40;;;;;;;37.08;21.02;;;13.60;99.90;;;;;;5003580;28;20025;-69
2023/07/23 02:32:06;;;;;;;33.63;22.13;;;13.60;99.90;;;;;;5008147;28;20025;-68
2023/07/23 02:34:32;;;;;;;34.75;20.45;;;13.60;99.90;;;;;;5009554;28;20018;-68
2023/07/23 02:36:58;;;;;;;34.00;19.80;;;13.60;99.90;;;;;;5006426;28;20446;-68
2023/07/23 02:39:24;;;;;;;33.88;20.67;;;13.60;99.90;;;;;;5018787;28;20104;-68
2023/07/23 02:41:49;;;;;;;35.97;20.73;;;13.60;99.90;;;;;;5003471;28;21348;-67
2023/07/23 02:44:15;;;;;;;34.83;19.10;;;13.60;99.90;;;;;;5000862;28;20463;-69
2023/07/23 02:46:40;;;;;;;35.60;20.10;;;13.70;99.90;;;;;;5005497;28;20042;-67
2023/07/23 02:49:06;;;;;;;32.33;19.50;;;13.60;99.90;;;;;;5009998;28;20369;-69
2023/07/23 02:51:31;;;;;;;32.63;19.73;;;13.60;99.90;;;;;;5018238;28;20403;-68
2023/07/23 02:53:57;;;;;;;31.95;19.65;;;13.70;99.90;;;;;;4997849;28;20525;-68
2023/07/23 02:56:22;;;;;;;32.95;19.35;;;13.70;99.90;;;;;;5005655;28;20034;-68
2023/07/23 02:58:48;;;;;;;35.10;19.52;;;13.70;99.90;;;;;;5010032;28;20351;-68
2023/07/23 03:01:13;;;;;;;33.15;18.25;;;13.70;99.90;;;;;;5006447;28;20056;-68
2023/07/23 03:03:39;;;;;;;31.02;18.27;;;13.70;99.90;;;;;;5008839;28;20367;-68
2023/07/23 03:06:08;;;;;;;30.40;17.80;;;13.70;99.90;;;;;;5007704;28;20030;-67
2023/07/23 03:08:34;;;;;;;29.35;17.70;;;13.70;99.90;;;;;;5009306;28;20080;-68
2023/07/23 03:11:00;;;;;;;32.03;18.05;;;13.70;99.90;;;;;;5010623;28;20426;-68
2023/07/23 03:13:25;;;;;;;28.75;16.58;;;13.70;99.90;;;;;;5009174;28;20037;-68
2023/07/23 03:15:50;;;;;;;34.17;18.42;;;13.60;99.90;;;;;;5006301;28;20065;-68
2023/07/23 03:18:16;;;;;;;28.48;17.13;;;13.70;99.90;;;;;;5013392;28;20025;-68
2023/07/23 03:20:41;;;;;;;28.05;17.70;;;13.70;99.90;;;;;;5012071;28;20407;-67
2023/07/23 03:23:07;;;;;;;30.50;17.33;;;13.70;99.90;;;;;;5013708;28;20029;-68
2023/07/23 03:25:33;;;;;;;32.22;17.27;;;13.70;99.90;;;;;;5007593;28;20037;-68
2023/07/23 03:27:59;;;;;;;29.75;17.83;;;13.70;99.90;;;;;;5012365;28;20030;-68
2023/07/23 03:30:26;;;;;;;31.35;17.08;;;13.70;99.90;;;;;;5009116;28;20125;-69
2023/07/23 03:32:52;;;;;;;26.83;17.10;;;13.70;99.90;;;;;;5007558;28;20454;-69
2023/07/23 03:35:18;;;;;;;29.35;16.90;;;13.70;99.90;;;;;;5008226;28;20478;-68
2023/07/23 03:37:44;;;;;;;25.08;16.45;;;13.70;99.90;;;;;;5009153;28;20532;-69
2023/07/23 03:40:09;;;;;;;27.17;16.60;;;13.70;99.90;;;;;;5009069;28;20034;-68
2023/07/23 03:42:35;;;;;;;30.88;17.00;;;13.70;99.90;;;;;;5012077;28;20096;-68
2023/07/23 03:45:00;;;;;;;28.88;17.15;;;13.70;99.90;;;;;;5006478;28;20121;-68
2023/07/23 03:47:26;;;;;;;28.10;15.82;;;13.70;99.90;;;;;;5011584;28;20033;-68
2023/07/23 03:49:51;;;;;;;28.92;15.88;;;13.80;99.90;;;;;;5009963;28;20034;-68
2023/07/23 03:52:17;;;;;;;27.40;16.15;;;13.70;99.90;;;;;;5011005;28;20083;-68
2023/07/23 03:54:42;;;;;;;29.40;16.27;;;13.80;99.90;;;;;;5013097;28;20033;-68
2023/07/23 03:57:08;;;;;;;24.85;15.70;;;13.70;99.90;;;;;;5011417;28;20057;-68
2023/07/23 03:59:42;;;;;;;29.38;16.00;;;13.80;99.90;;;;;;5012408;28;20087;-69
2023/07/23 04:02:08;;;;;;;25.98;15.43;;;13.80;99.80;;;;;;5005259;28;20017;-68
2023/07/23 04:04:34;;;;;;;23.83;14.88;;;13.80;99.80;;;;;;5006516;28;20357;-68
2023/07/23 04:07:00;;;;;;;22.00;14.15;;;13.80;99.80;;;;;;5009190;28;20076;-68
2023/07/23 04:09:26;;;;;;;25.65;14.40;;;13.80;99.80;;;;;;5012126;28;20112;-68
2023/07/23 04:11:51;;;;;;;25.38;15.35;;;13.80;99.80;;;;;;5012555;28;20037;-68
2023/07/23 04:14:17;;;;;;;28.35;15.00;;;13.80;99.80;;;;;;5009850;28;20450;-68
2023/07/23 04:16:42;;;;;;;24.20;15.27;;;13.90;99.80;;;;;;5009881;28;20034;-68
2023/07/23 04:19:08;;;;;;;26.85;15.32;;;13.90;99.90;;;;;;5007195;28;20030;-67
2023/07/23 04:21:33;;;;;;;25.45;14.85;;;13.90;99.90;;;;;;5007420;28;20032;-68
2023/07/23 04:24:00;;;;;;;25.10;14.60;;;13.90;99.90;;;;;;5013504;28;20037;-67
2023/07/23 04:26:28;;;;;;;25.63;15.73;;;13.90;99.90;;;;;;5012363;28;20026;-67
2023/07/23 04:28:53;;;;;;;27.17;14.52;;;13.90;99.90;;;;;;5010527;28;20038;-66
2023/07/23 04:31:19;;;;;;;22.38;13.20;;;13.90;99.90;;;;;;5008260;28;20129;-66
2023/07/23 04:33:45;;;;;;;26.23;14.38;;;13.90;99.90;;;;;;5011710;28;20052;-66
2023/07/23 04:36:12;;;;;;;25.08;13.63;;;13.90;99.90;;;;;;5009751;28;20034;-67
2023/07/23 04:38:39;;;;;;;21.30;12.77;;;13.90;99.90;;;;;;5011690;28;20033;-66
2023/07/23 04:41:05;;;;;;;26.63;13.60;;;13.90;99.90;;;;;;5011755;28;20513;-66
2023/07/23 04:43:31;;;;;;;23.98;13.73;;;14.00;99.90;;;;;;5009404;28;20355;-67
2023/07/23 04:45:57;;;;;;;23.83;13.52;;;14.00;99.90;;;;;;5006401;28;20034;-67
2023/07/23 04:48:22;;;;;;;24.27;12.75;;;14.00;99.90;;;;;;5009536;28;20037;-66
2023/07/23 04:50:55;;;;;;;22.02;12.18;;;14.00;99.90;;;;;;5009423;28;20072;-66
2023/07/23 04:53:21;;;;;;;19.88;11.90;;;14.00;99.90;;;;;;5006524;28;20061;-67
2023/07/23 04:55:50;;;;;;;19.60;11.82;;;14.00;99.90;;;;;;5011524;28;20088;-66
2023/07/23 04:58:15;;;;;;;19.98;11.02;;;14.00;99.90;;;;;;5011056;28;20506;-66
2023/07/23 05:00:41;;;;;;;19.55;11.88;;;14.00;99.90;;;;;;5003924;28;20121;-67
2023/07/23 05:03:06;;;;;;;23.27;11.85;;;14.00;99.90;;;;;;5012923;28;20049;-66
2023/07/23 05:05:32;;;;;;;18.77;10.38;;;14.00;99.90;;;;;;5009519;28;20369;-66
2023/07/23 05:07:57;;;;;;;18.58;11.93;;;14.00;99.90;;;;;;5007386;28;20030;-66
2023/07/23 05:10:23;;;;;;;19.55;10.95;;;14.00;99.90;;;;;;5011556;28;20026;-66
2023/07/23 05:12:49;;;;;;;18.23;10.27;;;14.00;99.90;;;;;;5011705;28;20042;-66
2023/07/23 05:15:15;;;;;;;19.55;11.00;;;14.00;99.90;;;;;;5006832;28;20401;-67
2023/07/23 05:17:41;;;;;;;17.02;10.32;;;14.00;99.90;;;;;;5010441;28;20557;-66
2023/07/23 05:20:08;;;;;;;17.40;9.93;;;14.00;99.90;;;;;;5004753;28;20085;-68
2023/07/23 05:22:38;;;;;;;16.85;10.13;;;14.10;99.90;;;;;;5005411;28;20034;-67
2023/07/23 05:25:04;;;;;;;20.17;10.82;;;14.10;99.90;;;;;;5005559;28;20034;-66
2023/07/23 05:27:30;;;;;;;15.65;10.50;;;14.10;99.90;;;;;;5011110;28;20025;-66
2023/07/23 05:29:56;;;;;;;18.98;10.05;;;14.00;99.90;;;;;;5010289;28;20022;-68
2023/07/23 05:32:21;;;;;;;20.30;10.68;;;14.10;99.90;;;;;;5011027;28;20041;-67
2023/07/23 05:34:47;;;;;;;20.05;10.48;;;14.10;99.90;;;;;;5008143;28;20536;-68
2023/07/23 05:37:13;;;;;;;18.75;10.80;;;14.10;99.90;;;;;;5005420;28;20358;-68
2023/07/23 05:39:38;;;;;;;19.27;11.18;;;14.10;99.90;;;;;;5009167;28;20147;-67
2023/07/23 05:42:04;;;;;;;18.70;10.30;;;14.10;99.90;;;;;;5009435;28;20108;-67
2023/07/23 05:44:30;;;;;;;17.55;10.43;;;14.20;99.90;;;;;;5007346;28;20038;-67
2023/07/23 05:46:56;;;;;;;19.17;10.45;;;14.10;99.80;;;;;;5004780;28;20025;-68
2023/07/23 05:49:21;;;;;;;17.88;10.60;;;14.30;99.90;;;;;;5008536;28;20087;-67
2023/07/23 05:51:47;;;;;;;16.98;10.25;;;14.30;99.90;;;;;;5006701;28;20038;-67
2023/07/23 05:54:13;;;;;;;21.33;10.95;;;14.30;99.90;;;;;;5008936;28;20030;-67
2023/07/23 05:56:38;;;;;;;19.55;10.23;;;14.30;99.80;;;;;;5009426;28;20030;-67
2023/07/23 05:59:04;;;;;;;17.33;10.82;;;14.20;99.70;;;;;;5006503;28;20034;-68
2023/07/23 06:01:29;;;;;;;17.27;10.63;;;14.30;99.80;;;;;;5004213;28;20076;-67
2023/07/23 06:03:55;;;;;;;15.45;10.75;;;14.30;99.80;;;;;;5015570;28;20367;-67
2023/07/23 06:06:23;;;;;;;17.40;10.95;;;14.40;99.80;;;;;;5009130;28;20108;-68
2023/07/23 06:08:48;;;;;;;20.83;11.40;;;14.40;99.80;;;;;;5009087;28;20026;-68
2023/07/23 06:11:14;;;;;;;17.77;10.10;;;14.50;99.80;;;;;;5011693;28;20052;-68
2023/07/23 06:13:39;;;;;;;16.05;10.68;;;14.50;99.80;;;;;;5007795;28;20592;-67
2023/07/23 06:16:05;;;;;;;18.15;10.48;;;14.50;99.80;;;;;;5009923;28;20162;-67
2023/07/23 06:18:30;;;;;;;15.15;9.65;;;14.50;99.70;;;;;;5009600;28;20033;-68
2023/07/23 06:20:56;;;;;;;16.02;9.95;;;14.50;99.60;;;;;;5009776;28;20586;-68
2023/07/23 06:23:21;;;;;;;17.38;10.48;;;14.50;99.50;;;;;;5010704;28;20037;-67
2023/07/23 06:25:56;;;;;;;15.40;10.13;;;14.60;99.50;;;;;;5006032;28;20034;-67
2023/07/23 06:28:22;;;;;;;14.20;10.32;;;14.60;99.50;;;;;;5006486;28;20099;-67
2023/07/23 06:30:51;;;;;;;15.07;10.50;;;14.60;99.40;;;;;;5004913;28;20030;-68
2023/07/23 06:33:16;;;;;;;14.43;9.80;;;14.60;99.50;;;;;;5008755;28;20034;-67
2023/07/23 06:35:43;;;;;;;17.20;10.27;;;14.60;99.30;;;;;;5007611;28;20486;-67
2023/07/23 06:38:09;;;;;;;18.40;10.18;;;14.70;99.40;;;;;;5009153;28;20022;-67
2023/07/23 06:40:34;;;;;;;16.02;10.07;;;14.70;99.30;;;;;;5007825;28;20033;-68
2023/07/23 06:43:00;;;;;;;15.02;9.57;;;14.70;99.20;;;;;;5011461;28;20037;-67
2023/07/23 06:45:26;;;;;;;13.48;9.05;;;14.80;99.10;;;;;;5003147;28;20068;-67
2023/07/23 06:47:51;;;;;;;13.55;9.02;;;14.80;99.20;;;;;;5008003;28;20048;-68
2023/07/23 06:50:19;;;;;;;16.08;9.50;;;14.90;99.10;;;;;;5005493;28;20406;-67
2023/07/23 06:52:45;;;;;;;15.20;9.10;;;15.00;99.10;;;;;;5007242;28;20037;-67
2023/07/23 06:55:11;;;;;;;13.15;8.25;;;14.90;98.40;;;;;;5008806;28;20466;-68
2023/07/23 06:57:38;;;;;;;14.65;8.75;;;15.10;98.90;;;;;;5010035;28;20038;-67
2023/07/23 07:00:05;;;;;;;13.55;8.38;;;15.00;98.70;;;;;;5004426;28;20462;-68
2023/07/23 07:02:30;;;;;;;13.45;9.07;;;15.10;99.00;;;;;;5005766;28;20042;-67
2023/07/23 07:04:56;;;;;;;12.10;8.68;;;15.10;98.60;;;;;;5011434;28;20363;-67
2023/07/23 07:07:21;;;;;;;12.07;8.02;;;15.20;98.50;;;;;;5014804;28;20038;-67
2023/07/23 07:09:46;;;;;;;12.40;7.93;;;15.20;98.70;;;;;;5012750;28;20017;-67
2023/07/23 07:12:12;;;;;;;16.08;8.73;;;15.20;98.50;;;;;;5013340;28;20030;-67
2023/07/23 07:14:37;;;;;;;12.23;7.78;;;15.30;98.40;;;;;;5011699;28;20444;-67
2023/07/23 07:17:03;;;;;;;10.95;7.93;;;15.30;98.50;;;;;;5010784;28;20024;-68
2023/07/23 07:19:29;;;;;;;14.68;8.65;;;15.40;98.70;;;;;;5014610;28;20030;-68
2023/07/23 07:21:54;;;;;;;14.50;8.05;;;15.40;98.50;;;;;;5009656;28;20037;-68
2023/07/23 07:24:20;;;;;;;14.77;8.02;;;15.40;98.40;;;;;;5007821;28;20034;-68
2023/07/23 07:26:45;;;;;;;12.07;8.30;;;15.40;98.20;;;;;;5005961;28;20038;-68
2023/07/23 07:29:11;;;;;;;11.65;7.75;;;15.50;98.50;;;;;;5012896;28;20029;-68
2023/07/23 07:31:36;;;;;;;12.65;8.15;;;15.50;98.30;;;;;;5009132;28;20046;-68
2023/07/23 07:34:02;;;;;;;11.13;7.90;;;15.50;98.30;;;;;;5009435;28;20041;-68
2023/07/23 07:36:28;;;;;;;16.00;7.63;;;15.60;98.20;;;;;;5005748;28;20014;-68
2023/07/23 07:38:54;;;;;;;13.38;7.50;;;15.60;98.00;;;;;;5008068;28;20065;-68
2023/07/23 07:41:19;;;;;;;12.88;7.38;;;15.70;98.20;;;;;;5010344;28;20038;-68
2023/07/23 07:43:45;;;;;;;11.13;7.90;;;15.70;98.10;;;;;;5003497;28;20042;-68
2023/07/23 07:46:10;;;;;;;11.30;7.32;;;15.80;97.90;;;;;;5000638;28;20514;-68
2023/07/23 07:48:37;;;;;;;11.73;7.75;;;15.80;97.70;;;;;;5007873;28;20026;-68
2023/07/23 07:51:05;;;;;;;11.15;7.18;;;16.00;98.00;;;;;;5006261;28;20496;-68
2023/07/23 07:53:32;;;;;;;11.70;7.80;;;16.10;97.90;;;;;;5009195;28;20528;-67
2023/07/23 07:55:59;;;;;;;13.15;7.82;;;16.10;97.70;;;;;;5013342;28;20092;-68
2023/07/23 07:58:25;;;;;;;12.52;7.32;;;16.20;97.60;;;;;;5008002;28;20049;-67
2023/07/23 08:00:54;;;;;;;10.57;7.07;;;16.20;96.90;;;;;;5005202;28;20097;-67
2023/07/23 08:03:25;;;;;;;11.27;6.68;;;16.20;96.90;;;;;;5016156;28;20095;-67
2023/07/23 08:05:51;;;;;;;10.80;6.50;;;16.20;97.00;;;;;;5003789;28;20030;-68
2023/07/23 08:08:23;;;;;;;12.07;6.63;;;16.20;96.80;;;;;;5010968;28;20030;-68
2023/07/23 08:10:49;;;;;;;13.27;6.68;;;16.10;96.50;;;;;;5007815;28;20029;-67
2023/07/23 08:13:15;;;;;;;10.82;7.03;;;16.30;96.90;;;;;;5008623;28;20021;-68
2023/07/23 08:15:41;;;;;;;10.05;7.00;;;16.10;96.40;;;;;;5008187;28;20045;-68
2023/07/23 08:18:06;;;;;;;13.02;7.63;;;16.40;97.30;;;;;;5008887;28;20421;-67
2023/07/23 08:20:34;;;;;;;12.50;7.10;;;16.50;97.50;;;;;;5006040;28;20030;-68
2023/07/23 08:23:01;;;;;;;10.93;7.30;;;16.30;96.60;;;;;;5004961;28;20092;-68
2023/07/23 08:25:28;;;;;;;13.90;8.15;;;16.30;96.90;;;;;;5006237;28;20096;-68
2023/07/23 08:28:00;;;;;;;10.65;7.00;;;16.50;97.50;;;;;;5012174;28;20080;-67
2023/07/23 08:30:29;;;;;;;10.35;7.40;;;16.40;97.00;;;;;;5005389;28;20100;-68
2023/07/23 08:32:56;;;;;;;13.38;8.15;;;16.60;97.30;;;;;;5011335;28;20060;-68
2023/07/23 08:35:24;;;;;;;11.77;8.07;;;16.80;97.50;;;;;;5005808;28;20036;-67
2023/07/23 08:37:50;;;;;;;11.98;7.53;;;16.70;96.70;;;;;;5006682;28;20040;-68
2023/07/23 08:40:16;;;;;;;12.45;7.47;;;16.60;96.40;;;;;;5008478;28;20108;-68
2023/07/23 08:42:54;;;;;;;11.70;7.60;;;16.90;96.90;;;;;;5010350;28;20443;-68
2023/07/23 08:45:37;;;;;;;10.60;6.95;;;16.70;96.30;;;;;;5003096;28;20037;-68
2023/07/23 08:48:13;;;;;;;12.65;6.95;;;16.80;96.30;;;;;;5010674;28;20045;-68
2023/07/23 08:50:40;;;;;;;14.60;7.75;;;17.00;96.40;;;;;;5006595;28;20068;-68
2023/07/23 08:53:10;;;;;;;12.32;7.63;;;17.00;96.40;;;;;;5006921;28;20401;-69
2023/07/23 08:55:36;;;;;;;13.60;7.10;;;17.10;96.00;;;;;;5011065;28;20038;-68
2023/07/23 08:58:02;;;;;;;11.88;7.25;;;17.10;96.00;;;;;;5007132;28;20434;-69
2023/07/23 09:00:29;;;;;;;13.57;7.40;;;17.40;95.90;;;;;;5007680;28;20044;-69
2023/07/23 09:02:54;;;;;;;13.32;6.90;;;17.20;95.10;;;;;;5007845;28;20454;-69
2023/07/23 09:05:20;;;;;;;8.73;6.43;;;17.40;95.30;;;;;;5009783;28;20033;-69
2023/07/23 09:07:46;;;;;;;9.82;6.55;;;17.30;94.90;;;;;;5012103;28;20034;-69
2023/07/23 09:10:12;;;;;;;9.30;6.13;;;17.50;95.70;;;;;;5009575;28;20350;-67
2023/07/23 09:12:41;;;;;;;11.77;7.00;;;17.40;94.80;;;;;;5014015;28;20033;-68
2023/07/23 09:15:07;;;;;;;8.40;6.22;;;17.50;95.20;;;;;;5005737;28;20018;-68
2023/07/23 09:17:33;;;;;;;9.15;5.97;;;17.70;95.40;;;;;;5002710;28;20032;-68
2023/07/23 09:19:59;;;;;;;11.00;6.03;;;17.60;94.80;;;;;;5011025;28;20509;-68
2023/07/23 09:22:24;;;;;;;8.88;6.00;;;17.70;94.60;;;;;;5007543;28;20054;-68
2023/07/23 09:24:57;;;;;;;9.75;6.00;;;17.60;94.10;;;;;;5007797;28;20161;-68
2023/07/23 09:27:22;;;;;;;9.82;5.82;;;17.60;93.90;;;;;;5005909;28;20028;-67
2023/07/23 09:29:48;;;;;;;8.88;6.03;;;17.60;94.70;;;;;;5011508;28;20026;-67
2023/07/23 09:32:25;;;;;;;11.13;6.03;;;17.60;94.00;;;;;;5008861;28;20105;-68
2023/07/23 09:34:54;;;;;;;10.55;6.10;;;17.70;94.20;;;;;;5007629;28;20065;-67
2023/07/23 09:37:20;;;;;;;8.90;5.80;;;17.60;93.70;;;;;;5005657;28;20029;-68
2023/07/23 09:39:45;;;;;;;9.52;6.55;;;17.60;93.80;;;;;;5002106;28;20038;-67
2023/07/23 09:42:12;;;;;;;9.13;6.35;;;17.50;93.90;;;;;;4998971;28;20026;-68
2023/07/23 09:44:41;;;;;;;10.00;6.20;;;17.70;94.30;;;;;;5004427;28;20088;-68
2023/07/23 09:47:07;;;;;;;10.30;6.00;;;17.70;94.10;;;;;;4999193;28;20054;-68
2023/07/23 09:49:33;;;;;;;10.52;5.43;;;17.80;93.80;;;;;;5005720;28;20497;-68
2023/07/23 09:52:03;;;;;;;8.43;5.97;;;18.00;94.40;;;;;;5000863;28;20031;-68
2023/07/23 09:54:29;;;;;;;9.85;6.13;;;18.10;93.90;;;;;;5001418;28;20040;-68
2023/07/23 09:56:55;;;;;;;16.52;5.80;;;18.50;93.40;;;;;;5007963;28;20033;-68
2023/07/23 09:59:21;;;;;;;10.50;5.80;;;18.70;93.00;;;;;;5008937;28;20041;-67
2023/07/23 10:01:47;;;;;;;9.50;6.00;;;18.80;92.30;;;;;;5011607;28;20071;-68
2023/07/23 10:04:15;;;;;;;11.40;6.00;;;18.90;91.10;;;;;;5008239;28;20435;-68
2023/07/23 10:06:41;;;;;;;7.82;5.40;;;18.90;91.70;;;;;;5002819;28;20109;-68
2023/07/23 10:09:07;;;;;;;9.45;5.60;;;18.80;90.30;;;;;;5002521;28;20097;-67
2023/07/23 10:11:33;;;;;;;11.32;5.35;;;18.80;91.40;;;;;;5002463;28;20029;-68
2023/07/23 10:13:59;;;;;;;10.85;6.03;;;18.70;90.80;;;;;;4998114;28;20032;-68
2023/07/23 10:16:28;;;;;;;12.77;5.38;;;18.80;91.50;;;;;;4996123;28;20038;-67
2023/07/23 10:18:56;;;;;;;7.28;5.07;;;18.90;92.10;;;;;;5000713;28;20033;-68
2023/07/23 10:21:22;;;;;;;8.82;5.07;;;18.90;90.80;;;;;;4996567;28;20037;-68
2023/07/23 10:23:55;;;;;;;11.75;5.57;;;18.90;91.00;;;;;;4993982;28;20043;-67
2023/07/23 10:26:30;;;;;;;8.18;5.15;;;19.00;90.70;;;;;;4997572;28;20037;-68
2023/07/23 10:29:26;;;;;;;10.82;5.32;;;19.40;91.70;;;;;;4998463;28;20428;-68
2023/07/23 10:31:56;;;;;;;9.65;5.55;;;19.10;89.10;;;;;;4999760;28;20037;-68
2023/07/23 10:34:22;;;;;;;9.30;5.03;;;19.40;89.50;;;;;;4996851;28;20385;-68
2023/07/23 10:37:10;;;;;;;11.50;5.32;;;19.40;88.80;;;;;;5000008;28;20030;-68
2023/07/23 10:39:50;;;;;;;10.52;5.32;;;19.40;88.70;;;;;;4994709;28;20049;-68
2023/07/23 10:42:34;;;;;;;9.93;4.93;;;19.40;89.70;;;;;;4996651;28;20080;-67
2023/07/23 10:45:22;;;;;;;9.05;5.07;;;19.20;88.10;;;;;;4993781;28;20496;-67
2023/07/23 10:47:48;;;;;;;7.97;5.40;;;18.80;87.30;;;;;;4999937;28;20030;-68
2023/07/23 10:50:15;;;;;;;10.23;5.45;;;18.60;88.50;;;;;;5007390;28;20489;-67
2023/07/23 10:52:48;;;;;;;10.18;6.00;;;18.40;90.20;;;;;;5008425;28;20034;-68
2023/07/23 10:55:34;;;;;;;10.38;6.10;;;18.10;90.70;;;;;;5010313;28;20105;-68
2023/07/23 10:58:02;;;;;;;10.25;6.10;;;18.00;91.80;;;;;;5000535;28;20056;-67
2023/07/23 11:00:30;;;;;;;12.27;6.03;;;17.90;92.20;;;;;;5003996;28;20417;-67
2023/07/23 11:02:56;;;;;;;10.23;5.75;;;17.70;92.10;;;;;;5006380;28;20026;-68
2023/07/23 11:05:22;;;;;;;13.43;6.80;;;17.50;92.80;;;;;;5008564;28;20108;-68
2023/07/23 11:08:13;;;;;;;10.95;6.95;;;17.50;93.50;;;;;;5007132;28;20101;-68
2023/07/23 11:10:57;;;;;;;13.70;6.78;;;17.60;94.00;;;;;;5009692;28;20161;-68
2023/07/23 11:13:25;;;;;;;10.68;7.00;;;17.70;94.40;;;;;;5005144;28;20041;-68
2023/07/23 11:15:51;;;;;;;11.70;7.65;;;17.80;94.50;;;;;;5007399;28;20029;-68
2023/07/23 11:18:18;;;;;;;12.20;7.18;;;17.70;94.70;;;;;;5005717;28;20045;-68
2023/07/23 11:20:52;;;;;;;13.85;8.32;;;17.70;95.10;;;;;;5006151;28;20026;-68
2023/07/23 11:23:20;;;;;;;14.27;7.88;;;17.50;94.90;;;;;;5007167;28;20390;-68
2023/07/23 11:25:47;;;;;;;11.88;7.68;;;17.40;95.60;;;;;;5008283;28;20048;-68
2023/07/23 11:28:15;;;;;;;14.95;8.60;;;17.00;95.80;;;;;;5005268;28;20037;-68
2023/07/23 11:30:41;;;;;;;14.10;8.10;;;16.80;96.00;;;;;;5007410;28;20026;-68
2023/07/23 11:33:07;;;;;;;16.65;8.65;;;16.60;96.70;;;;;;5005517;28;20080;-68
2023/07/23 11:35:32;;;;;;;14.35;9.38;;;16.50;97.30;;;;;;5006471;28;20084;-68
2023/07/23 11:38:04;;;;;;;15.35;9.43;;;16.50;97.80;;;;;;5008477;28;20025;-68
2023/07/23 11:40:30;;;;;;;16.35;9.38;;;16.60;98.10;;;;;;5010494;28;20125;-68
2023/07/23 11:42:55;;;;;;;15.63;9.18;;;16.60;97.80;;;;;;5013928;28;20441;-68
2023/07/23 11:45:22;;;;;;;14.98;9.18;;;16.70;97.80;;;;;;5009556;28;20069;-68
2023/07/23 11:47:49;;;;;;;18.08;9.38;;;16.80;97.50;;;;;;5013348;28;20463;-68
2023/07/23 11:50:16;;;;;;;16.45;9.98;;;16.90;97.40;;;;;;5010797;28;20116;-68
2023/07/23 11:52:41;;;;;;;11.18;8.32;;;17.00;97.30;;;;;;5011803;28;20192;-68
2023/07/23 11:55:19;;;;;;;12.82;8.70;;;17.00;96.80;;;;;;5011552;28;20022;-68
2023/07/23 11:57:49;;;;;;;13.75;8.60;;;17.10;97.00;;;;;;5011697;28;20168;-69
2023/07/23 12:00:23;;;;;;;19.75;8.52;;;17.20;97.00;;;;;;5010288;28;20370;-69
2023/07/23 12:02:48;;;;;;;15.73;8.05;;;17.40;97.20;;;;;;5005756;28;20124;-69
2023/07/23 12:05:14;;;;;;;12.57;7.82;;;17.30;96.90;;;;;;5012205;28;20076;-68
2023/07/23 12:07:39;;;;;;;12.75;7.22;;;17.00;96.40;;;;;;5013038;28;20041;-68
2023/07/23 12:10:05;;;;;;;11.23;7.25;;;16.90;96.10;;;;;;5013578;28;20026;-68
2023/07/23 12:12:33;;;;;;;11.25;7.22;;;17.00;96.70;;;;;;5012172;28;20112;-69
2023/07/23 12:15:05;;;;;;;13.65;7.63;;;17.00;96.60;;;;;;5006827;28;20022;-69
2023/07/23 12:17:31;;;;;;;10.65;7.43;;;17.00;96.50;;;;;;5011133;28;20033;-68
2023/07/23 12:19:56;;;;;;;14.02;7.53;;;17.10;96.10;;;;;;5011329;28;20038;-69
2023/07/23 12:22:24;;;;;;;12.00;6.25;;;17.30;96.40;;;;;;5012679;28;20458;-68
2023/07/23 12:24:49;;;;;;;11.98;6.55;;;17.10;95.20;;;;;;5013517;28;20026;-68
2023/07/23 12:27:15;;;;;;;9.43;6.25;;;17.30;95.80;;;;;;5012041;28;20033;-68
2023/07/23 12:29:42;;;;;;;11.50;5.68;;;17.70;96.40;;;;;;5012985;28;20034;-68
2023/07/23 12:32:12;;;;;;;8.70;5.50;;;17.70;95.10;;;;;;5005099;28;20439;-68